createdAt,value
2019-02-14T00:00:44.438Z,93.90
2019-02-14T00:03:14.746Z,93.90
2019-02-14T00:05:45.049Z,93.80
2019-02-14T00:08:15.329Z,93.80
2019-02-14T00:10:45.608Z,93.90
2019-02-14T00:13:15.996Z,93.90
2019-02-14T00:15:46.273Z,93.90
2019-02-14T00:18:16.628Z,93.90
2019-02-14T00:20:46.967Z,93.90
2019-02-14T00:23:17.304Z,93.90
2019-02-14T00:25:47.646Z,94.10
2019-02-14T00:28:17.951Z,93.90
2019-02-14T00:30:48.220Z,94.00
2019-02-14T00:33:18.533Z,94.10
2019-02-14T00:35:48.941Z,94.10
2019-02-14T00:38:19.333Z,94.10
2019-02-14T00:40:49.641Z,94.10
2019-02-14T00:43:20.966Z,94.20
2019-02-14T00:45:51.262Z,94.20
2019-02-14T00:48:21.586Z,94.20
2019-02-14T00:50:51.884Z,94.20
2019-02-14T00:53:22.222Z,94.20
2019-02-14T00:55:52.658Z,94.20
2019-02-14T00:58:23.119Z,94.20
2019-02-14T01:00:53.405Z,94.30
2019-02-14T01:03:23.725Z,94.30
2019-02-14T01:05:54.099Z,94.40
2019-02-14T01:08:24.446Z,94.40
2019-02-14T01:10:54.788Z,94.30
2019-02-14T01:13:25.361Z,94.30
2019-02-14T01:15:55.714Z,94.30
2019-02-14T01:18:26.017Z,94.30
2019-02-14T01:20:56.332Z,94.30
2019-02-14T01:23:26.760Z,94.10
2019-02-14T01:25:57.156Z,94.20
2019-02-14T01:28:27.479Z,94.10
2019-02-14T01:30:57.894Z,94.10
2019-02-14T01:33:28.280Z,94.10
2019-02-14T01:35:58.589Z,94.20
2019-02-14T01:38:28.921Z,94.20
2019-02-14T01:40:59.203Z,94.20
2019-02-14T01:43:29.576Z,94.20
2019-02-14T01:45:59.839Z,94.20
2019-02-14T01:48:30.235Z,94.20
2019-02-14T01:51:00.546Z,94.20
2019-02-14T01:53:30.885Z,94.30
2019-02-14T01:56:01.318Z,94.20
2019-02-14T01:58:31.625Z,94.10
2019-02-14T02:01:01.905Z,94.40
2019-02-14T02:03:32.313Z,94.00
2019-02-14T02:06:02.598Z,94.10
2019-02-14T02:08:33.040Z,94.00
2019-02-14T02:11:03.809Z,94.00
2019-02-14T02:13:34.216Z,94.30
2019-02-14T02:16:04.672Z,94.10
2019-02-14T02:18:36.036Z,94.10
2019-02-14T02:21:06.330Z,94.20
2019-02-14T02:23:36.647Z,94.30
2019-02-14T02:26:07.221Z,94.20
2019-02-14T02:28:37.724Z,94.20
2019-02-14T02:31:08.258Z,94.20
2019-02-14T02:33:39.911Z,94.20
2019-02-14T02:36:10.212Z,94.30
2019-02-14T02:38:41.084Z,94.30
2019-02-14T02:41:11.365Z,94.20
2019-02-14T02:43:42.026Z,94.20
2019-02-14T02:46:12.352Z,94.20
2019-02-14T02:48:42.742Z,94.10
2019-02-14T02:51:13.044Z,94.10
2019-02-14T02:53:43.416Z,94.10
2019-02-14T02:56:13.901Z,94.00
2019-02-14T02:58:44.178Z,94.10
2019-02-14T03:01:14.561Z,94.00
2019-02-14T03:03:44.865Z,94.10
2019-02-14T03:06:15.259Z,94.10
2019-02-14T03:10:01.544Z,94.10
2019-02-14T03:12:31.852Z,94.10
2019-02-14T03:15:02.236Z,94.10
2019-02-14T03:17:32.527Z,94.30
2019-02-14T03:20:04.173Z,94.30
2019-02-14T03:22:34.473Z,94.30
2019-02-14T03:25:05.929Z,94.20
2019-02-14T03:27:36.237Z,94.20
2019-02-14T03:30:07.409Z,94.30
2019-02-14T03:32:37.741Z,94.30
2019-02-14T03:35:08.496Z,94.30
2019-02-14T03:37:40.943Z,94.30
2019-02-14T03:40:11.808Z,94.30
2019-02-14T03:42:42.100Z,94.20
2019-02-14T03:45:14.831Z,94.20
2019-02-14T03:47:45.209Z,94.30
2019-02-14T03:50:15.615Z,94.10
2019-02-14T03:52:45.902Z,94.10
2019-02-14T03:55:16.216Z,94.30
2019-02-14T03:57:46.506Z,94.50
2019-02-14T04:00:17.042Z,94.40
2019-02-14T04:02:47.468Z,94.40
2019-02-14T04:05:17.922Z,94.30
2019-02-14T04:07:48.208Z,94.40
2019-02-14T04:10:18.577Z,94.50
2019-02-14T04:12:48.968Z,94.60
2019-02-14T04:15:19.400Z,94.70
2019-02-14T04:17:49.686Z,94.70
2019-02-14T04:20:20.035Z,94.70
2019-02-14T04:22:50.370Z,94.70
2019-02-14T04:25:20.729Z,94.70
2019-02-14T04:27:51.069Z,94.70
2019-02-14T04:30:21.339Z,94.70
2019-02-14T04:32:51.630Z,94.70
2019-02-14T04:35:21.918Z,94.80
2019-02-14T04:37:52.353Z,94.80
2019-02-14T04:40:22.657Z,94.90
2019-02-14T04:42:52.950Z,94.90
2019-02-14T04:45:23.245Z,95.00
2019-02-14T04:47:53.671Z,95.40
2019-02-14T04:50:24.012Z,94.80
2019-02-14T04:52:54.605Z,95.00
2019-02-14T04:55:24.926Z,95.20
2019-02-14T04:57:56.436Z,95.40
2019-02-14T05:00:26.775Z,95.80
2019-02-14T05:02:57.055Z,95.90
2019-02-14T05:05:27.343Z,95.80
2019-02-14T05:07:57.715Z,96.00
2019-02-14T05:10:28.100Z,95.80
2019-02-14T05:12:58.384Z,95.90
2019-02-14T05:15:28.728Z,96.10
2019-02-14T05:17:59.012Z,96.00
2019-02-14T05:20:29.350Z,96.20
2019-02-14T05:22:59.645Z,96.30
2019-02-14T05:25:29.936Z,96.10
2019-02-14T05:28:00.225Z,96.30
2019-02-14T05:30:30.533Z,96.10
2019-02-14T05:33:00.824Z,96.30
2019-02-14T05:35:31.105Z,96.20
2019-02-14T05:38:01.397Z,96.20
2019-02-14T05:40:31.789Z,96.10
2019-02-14T05:43:02.066Z,96.30
2019-02-14T05:45:32.405Z,96.30
2019-02-14T05:48:02.681Z,96.40
2019-02-14T05:50:32.971Z,96.50
2019-02-14T05:53:03.372Z,96.50
2019-02-14T05:55:33.652Z,96.70
2019-02-14T05:58:03.957Z,96.70
2019-02-14T06:00:34.382Z,96.60
2019-02-14T06:03:04.834Z,96.60
2019-02-14T06:05:35.145Z,96.50
2019-02-14T06:08:05.609Z,96.40
2019-02-14T06:10:35.926Z,96.40
2019-02-14T06:13:06.336Z,96.40
2019-02-14T06:15:36.794Z,96.30
2019-02-14T06:18:06.724Z,96.40
2019-02-14T06:20:37.014Z,96.60
2019-02-14T06:23:07.345Z,96.50
2019-02-14T06:25:37.645Z,96.40
2019-02-14T06:28:07.952Z,96.40
2019-02-14T06:30:38.640Z,96.50
2019-02-14T06:33:09.168Z,96.60
2019-02-14T06:35:41.904Z,96.90
2019-02-14T06:38:12.214Z,97.20
2019-02-14T06:40:42.500Z,96.90
2019-02-14T06:43:12.846Z,96.90
2019-02-14T06:45:43.134Z,96.90
2019-02-14T06:48:13.477Z,96.90
2019-02-14T06:50:43.780Z,96.80
2019-02-14T06:53:14.154Z,96.70
2019-02-14T06:55:44.533Z,96.80
2019-02-14T06:58:14.976Z,96.70
2019-02-14T07:00:45.360Z,96.80
2019-02-14T07:03:15.661Z,96.80
2019-02-14T07:05:45.968Z,96.80
2019-02-14T07:08:16.275Z,96.80
2019-02-14T07:10:46.570Z,96.70
2019-02-14T07:13:17.055Z,96.70
2019-02-14T07:15:47.478Z,96.70
2019-02-14T07:18:17.841Z,96.60
2019-02-14T07:20:48.152Z,97.00
2019-02-14T07:23:18.478Z,96.70
2019-02-14T07:25:48.754Z,96.70
2019-02-14T07:28:19.144Z,96.70
2019-02-14T07:30:49.521Z,96.90
2019-02-14T07:33:19.809Z,96.80
2019-02-14T07:35:50.150Z,96.90
2019-02-14T07:38:20.489Z,96.70
2019-02-14T07:40:50.877Z,96.70
2019-02-14T07:43:21.135Z,96.70
2019-02-14T07:45:51.450Z,96.70
2019-02-14T07:48:21.765Z,96.70
2019-02-14T07:50:52.088Z,96.70
2019-02-14T07:53:22.406Z,96.60
2019-02-14T07:55:52.782Z,96.50
2019-02-14T07:58:23.064Z,96.60
2019-02-14T08:00:53.385Z,96.50
2019-02-14T08:03:23.676Z,96.60
2019-02-14T08:05:53.952Z,96.40
2019-02-14T08:08:24.257Z,96.40
2019-02-14T08:10:54.624Z,96.40
2019-02-14T08:13:25.757Z,96.60
2019-02-14T08:15:56.106Z,97.30
2019-02-14T08:18:26.509Z,97.30
2019-02-14T08:20:56.829Z,97.00
2019-02-14T08:23:27.145Z,96.50
2019-02-14T08:25:57.501Z,96.30
2019-02-14T08:28:29.294Z,96.20
2019-02-14T08:30:59.623Z,96.20
2019-02-14T08:33:29.928Z,96.20
2019-02-14T08:36:00.322Z,96.10
2019-02-14T08:38:30.721Z,96.00
2019-02-14T08:41:01.026Z,96.00
2019-02-14T08:43:31.325Z,95.90
2019-02-14T08:46:01.943Z,95.70
2019-02-14T08:48:32.212Z,95.40
2019-02-14T08:51:02.574Z,95.40
2019-02-14T08:53:33.329Z,95.50
2019-02-14T08:56:05.384Z,95.50
2019-02-14T08:58:35.596Z,95.60
2019-02-14T09:01:07.281Z,95.50
2019-02-14T09:03:37.619Z,95.10
2019-02-14T09:06:08.299Z,95.10
2019-02-14T09:08:38.677Z,94.90
2019-02-14T09:11:09.001Z,95.00
2019-02-14T09:13:39.429Z,94.90
2019-02-14T09:16:09.772Z,94.80
2019-02-14T09:18:40.623Z,94.70
2019-02-14T09:21:11.029Z,94.70
2019-02-14T09:23:41.365Z,94.70
2019-02-14T09:26:11.737Z,94.50
2019-02-14T09:28:42.021Z,94.40
2019-02-14T09:31:12.357Z,94.10
2019-02-14T09:33:42.642Z,94.10
2019-02-14T09:36:14.204Z,93.70
2019-02-14T09:38:44.504Z,93.90
2019-02-14T09:41:14.901Z,93.50
2019-02-14T09:43:45.292Z,93.40
2019-02-14T09:46:15.620Z,93.20
2019-02-14T09:48:45.876Z,93.30
2019-02-14T09:51:16.269Z,93.30
2019-02-14T09:53:46.568Z,93.00
2019-02-14T09:56:16.886Z,93.00
2019-02-14T09:58:47.202Z,93.10
2019-02-14T10:01:17.472Z,93.10
2019-02-14T10:03:47.765Z,92.70
2019-02-14T10:06:18.105Z,93.00
2019-02-14T10:08:48.421Z,92.80
2019-02-14T10:11:18.720Z,93.00
2019-02-14T10:13:48.976Z,92.90
2019-02-14T10:16:19.442Z,92.90
2019-02-14T10:18:49.843Z,92.60
2019-02-14T10:21:20.192Z,92.20
2019-02-14T10:23:50.475Z,92.40
2019-02-14T10:26:20.936Z,92.30
2019-02-14T10:28:51.207Z,93.10
2019-02-14T10:31:21.557Z,92.60
2019-02-14T10:33:51.864Z,92.40
2019-02-14T10:36:22.140Z,92.60
2019-02-14T10:38:52.492Z,92.10
2019-02-14T10:41:22.820Z,92.00
2019-02-14T10:43:53.172Z,92.10
2019-02-14T10:46:23.512Z,92.00
2019-02-14T10:48:53.792Z,91.80
2019-02-14T10:51:24.080Z,91.50
2019-02-14T10:53:54.341Z,91.50
2019-02-14T10:56:24.668Z,91.50
2019-02-14T10:58:55.013Z,91.40
2019-02-14T11:01:25.391Z,91.20
2019-02-14T11:03:55.673Z,91.40
2019-02-14T11:06:25.985Z,91.30
2019-02-14T11:08:56.302Z,91.50
2019-02-14T11:11:26.645Z,91.50
2019-02-14T11:13:57.002Z,91.20
2019-02-14T11:16:27.275Z,91.10
2019-02-14T11:18:57.597Z,91.10
2019-02-14T11:21:27.882Z,90.60
2019-02-14T11:23:58.293Z,90.20
2019-02-14T11:26:28.570Z,90.10
2019-02-14T11:28:58.875Z,90.40
2019-02-14T11:31:29.144Z,90.60
2019-02-14T11:33:59.465Z,90.50
2019-02-14T11:36:29.743Z,90.50
2019-02-14T11:39:00.102Z,90.10
2019-02-14T11:41:30.377Z,89.90
2019-02-14T11:44:02.729Z,88.90
2019-02-14T11:46:32.620Z,90.00
2019-02-14T11:49:02.942Z,89.50
2019-02-14T11:51:33.258Z,89.70
2019-02-14T11:54:03.567Z,89.10
2019-02-14T11:56:33.850Z,88.30
2019-02-14T11:59:04.161Z,88.20
2019-02-14T12:01:34.500Z,88.30
2019-02-14T12:04:04.823Z,88.20
2019-02-14T12:06:35.312Z,87.80
2019-02-14T12:09:06.681Z,87.20
2019-02-14T12:11:38.157Z,85.90
2019-02-14T12:14:08.540Z,85.30
2019-02-14T12:16:38.943Z,84.50
2019-02-14T12:19:09.480Z,84.30
2019-02-14T12:21:40.037Z,82.20
2019-02-14T12:24:10.360Z,81.90
2019-02-14T12:26:40.868Z,81.20
2019-02-14T12:29:11.284Z,78.00
2019-02-14T12:31:41.588Z,78.20
2019-02-14T12:34:11.981Z,78.50
2019-02-14T12:36:42.266Z,77.90
2019-02-14T12:39:12.657Z,78.20
2019-02-14T12:41:42.949Z,76.90
2019-02-14T12:44:13.303Z,75.50
2019-02-14T12:46:43.663Z,74.00
2019-02-14T12:49:14.022Z,74.20
2019-02-14T12:51:44.310Z,74.70
2019-02-14T12:54:14.605Z,75.80
2019-02-14T12:56:45.135Z,73.60
2019-02-14T12:59:15.447Z,73.00
2019-02-14T13:01:45.754Z,72.20
2019-02-14T13:04:16.139Z,72.10
2019-02-14T13:06:46.446Z,71.70
2019-02-14T13:09:20.142Z,71.00
2019-02-14T13:11:48.795Z,70.60
2019-02-14T13:14:19.280Z,68.90
2019-02-14T13:16:49.672Z,67.40
2019-02-14T13:19:20.220Z,68.10
2019-02-14T13:21:50.586Z,68.60
2019-02-14T13:24:20.870Z,66.70
2019-02-14T13:26:51.677Z,67.00
2019-02-14T13:29:22.499Z,66.20
2019-02-14T13:31:52.714Z,65.30
2019-02-14T13:34:22.992Z,63.80
2019-02-14T13:37:01.334Z,63.70
2019-02-14T13:39:29.699Z,63.10
2019-02-14T13:41:57.096Z,62.90
2019-02-14T13:44:27.453Z,60.90
2019-02-14T13:46:57.864Z,60.60
2019-02-14T13:49:28.141Z,60.50
2019-02-14T13:51:58.444Z,60.50
2019-02-14T13:54:28.729Z,59.80
2019-02-14T13:56:59.039Z,58.60
2019-02-14T13:59:29.362Z,58.90
2019-02-14T14:01:59.664Z,58.50
2019-02-14T14:04:30.074Z,58.20
2019-02-14T14:07:00.364Z,58.30
2019-02-14T14:09:38.573Z,58.70
2019-02-14T14:12:02.588Z,58.50
2019-02-14T14:14:33.036Z,57.40
2019-02-14T14:17:03.348Z,57.80
2019-02-14T14:19:33.624Z,57.90
2019-02-14T14:22:03.920Z,58.80
2019-02-14T14:24:34.193Z,57.20
2019-02-14T14:27:04.471Z,57.60
2019-02-14T14:29:35.061Z,56.70
2019-02-14T14:32:05.441Z,57.20
2019-02-14T14:34:36.912Z,56.40
2019-02-14T14:37:07.822Z,55.50
2019-02-14T14:39:46.048Z,55.30
2019-02-14T14:42:21.175Z,55.40
2019-02-14T14:44:51.892Z,55.70
2019-02-14T14:47:25.815Z,55.10
2019-02-14T14:49:56.110Z,54.30
2019-02-14T14:52:26.402Z,53.70
2019-02-14T14:54:56.960Z,53.30
2019-02-14T14:57:32.874Z,52.50
2019-02-14T15:00:05.337Z,52.70
2019-02-14T15:02:36.906Z,52.70
2019-02-14T15:05:06.975Z,51.80
2019-02-14T15:07:37.283Z,51.20
2019-02-14T15:10:07.544Z,51.10
2019-02-14T15:12:39.554Z,50.50
2019-02-14T15:15:10.150Z,50.40
2019-02-14T15:17:41.208Z,50.40
2019-02-14T15:20:12.409Z,50.40
2019-02-14T15:22:43.468Z,50.20
2019-02-14T15:25:13.891Z,49.70
2019-02-14T15:27:44.621Z,48.50
2019-02-14T15:30:17.128Z,48.30
2019-02-14T15:32:50.709Z,47.30
2019-02-14T15:35:22.635Z,47.20
2019-02-14T15:37:53.507Z,47.20
2019-02-14T15:40:24.185Z,46.90
2019-02-14T15:42:54.171Z,46.60
2019-02-14T15:45:24.735Z,46.70
2019-02-14T15:47:55.037Z,47.30
2019-02-14T15:50:25.537Z,47.50
2019-02-14T15:52:57.032Z,48.30
2019-02-14T15:55:27.421Z,48.70
2019-02-14T15:57:57.741Z,49.50
2019-02-14T16:00:28.032Z,50.40
2019-02-14T16:02:58.453Z,50.90
2019-02-14T16:05:28.924Z,51.50
2019-02-14T16:08:00.428Z,52.00
2019-02-14T16:10:31.476Z,52.80
2019-02-14T16:13:01.926Z,53.50
2019-02-14T16:15:33.808Z,53.80
2019-02-14T16:18:04.348Z,54.20
2019-02-14T16:20:34.722Z,54.50
2019-02-14T16:23:06.443Z,55.00
2019-02-14T16:25:37.012Z,55.20
2019-02-14T16:28:07.071Z,55.10
2019-02-14T16:30:38.596Z,56.00
2019-02-14T16:33:09.323Z,56.60
2019-02-14T16:35:39.920Z,57.10
2019-02-14T16:38:11.854Z,57.40
2019-02-14T16:40:44.350Z,57.80
2019-02-14T16:43:15.183Z,58.20
2019-02-14T16:45:46.338Z,58.50
2019-02-14T16:48:16.634Z,59.00
2019-02-14T16:50:47.085Z,59.10
2019-02-14T16:53:17.606Z,59.20
2019-02-14T16:55:47.960Z,59.20
2019-02-14T16:58:18.459Z,59.60
2019-02-14T17:00:50.276Z,59.70
2019-02-14T17:03:20.656Z,59.80
2019-02-14T17:05:51.028Z,60.30
2019-02-14T17:08:21.594Z,60.30
2019-02-14T17:10:53.173Z,60.00
2019-02-14T17:13:25.146Z,60.20
2019-02-14T17:15:57.340Z,60.30
2019-02-14T17:18:30.267Z,60.20
2019-02-14T17:21:01.603Z,60.20
2019-02-14T17:23:32.873Z,60.00
2019-02-14T17:26:04.412Z,61.00
2019-02-14T17:28:36.456Z,59.90
2019-02-14T17:31:09.121Z,59.80
2019-02-14T17:33:41.447Z,59.90
2019-02-14T17:36:14.930Z,60.20
2019-02-14T17:38:46.269Z,59.80
2019-02-14T17:41:19.424Z,59.80
2019-02-14T17:43:52.049Z,59.80
2019-02-14T17:46:23.364Z,59.90
2019-02-14T17:48:54.895Z,61.20
2019-02-14T17:51:26.590Z,62.40
2019-02-14T17:53:58.825Z,61.80
2019-02-14T17:56:30.334Z,61.80
2019-02-14T17:59:02.575Z,62.30
2019-02-14T18:01:33.835Z,63.20
2019-02-14T18:04:05.944Z,63.80
2019-02-14T18:06:38.092Z,64.60
2019-02-14T18:09:11.914Z,65.00
2019-02-14T18:11:43.937Z,65.80
2019-02-14T18:14:18.293Z,66.20
2019-02-14T18:16:49.945Z,66.80
2019-02-14T18:19:20.793Z,67.50
2019-02-14T18:21:52.387Z,68.20
2019-02-14T18:24:22.938Z,68.50
2019-02-14T18:26:53.253Z,68.80
2019-02-14T18:29:25.110Z,69.50
2019-02-14T18:31:55.397Z,69.80
2019-02-14T18:34:25.776Z,70.10
2019-02-14T18:36:56.053Z,71.00
2019-02-14T18:39:26.465Z,71.70
2019-02-14T18:41:57.616Z,72.00
2019-02-14T18:44:29.438Z,72.10
2019-02-14T18:46:59.758Z,72.40
2019-02-14T18:49:30.205Z,72.50
2019-02-14T18:52:00.514Z,73.10
2019-02-14T18:54:32.198Z,72.70
2019-02-14T18:57:06.143Z,72.80
2019-02-14T18:59:37.754Z,72.90
2019-02-14T19:02:08.804Z,73.00
2019-02-14T19:04:39.544Z,72.70
2019-02-14T19:07:12.599Z,72.50
2019-02-14T19:09:42.546Z,72.90
2019-02-14T19:12:13.697Z,72.80
2019-02-14T19:14:45.053Z,72.90
2019-02-14T19:17:15.800Z,73.00
2019-02-14T19:19:50.081Z,73.10
2019-02-14T19:22:21.469Z,73.30
2019-02-14T19:24:51.859Z,73.50
2019-02-14T19:27:22.127Z,73.10
2019-02-14T19:29:52.486Z,73.50
2019-02-14T19:32:22.946Z,73.70
2019-02-14T19:34:53.429Z,74.20
2019-02-14T19:37:23.860Z,74.50
2019-02-14T19:39:54.185Z,74.70
2019-02-14T19:42:24.045Z,75.00
2019-02-14T19:44:54.321Z,75.20
2019-02-14T19:47:24.695Z,75.00
2019-02-14T19:49:54.980Z,75.30
2019-02-14T19:52:25.278Z,75.50
2019-02-14T19:54:55.545Z,75.60
2019-02-14T19:57:25.820Z,75.50
2019-02-14T19:59:56.110Z,75.30
2019-02-14T20:02:26.425Z,75.30
2019-02-14T20:04:56.892Z,75.10
2019-02-14T20:07:27.349Z,74.80
2019-02-14T20:09:57.758Z,74.80
2019-02-14T20:14:20.345Z,74.70
2019-02-14T20:16:50.653Z,75.00
2019-02-14T20:19:22.305Z,75.00
2019-02-14T20:21:52.753Z,74.90
2019-02-14T20:24:23.279Z,74.60
2019-02-14T20:26:53.559Z,74.80
2019-02-14T20:29:23.849Z,74.60
2019-02-14T20:31:54.133Z,74.60
2019-02-14T20:34:24.422Z,74.60
2019-02-14T20:36:54.725Z,74.40
2019-02-14T20:39:25.219Z,74.40
2019-02-14T20:41:55.507Z,74.30
2019-02-14T20:44:25.845Z,74.30
2019-02-14T20:46:56.216Z,74.90
2019-02-14T20:49:26.518Z,75.20
2019-02-14T20:51:56.795Z,75.50
2019-02-14T20:54:27.091Z,75.60
2019-02-14T20:56:57.411Z,76.00
2019-02-14T20:59:27.712Z,76.20
2019-02-14T21:01:57.984Z,76.10
2019-02-14T21:04:28.266Z,76.20
2019-02-14T21:06:58.773Z,76.20
2019-02-14T21:09:29.070Z,76.30
2019-02-14T21:11:59.361Z,76.40
2019-02-14T21:14:29.744Z,76.50
2019-02-14T21:17:00.062Z,76.70
2019-02-14T21:19:30.349Z,77.20
2019-02-14T21:22:01.856Z,77.50
2019-02-14T21:24:32.400Z,77.50
2019-02-14T21:27:03.415Z,77.60
2019-02-14T21:29:33.783Z,77.60
2019-02-14T21:32:04.085Z,77.70
2019-02-14T21:34:34.464Z,77.60
2019-02-14T21:37:04.767Z,77.70
2019-02-14T21:39:35.269Z,77.70
2019-02-14T21:42:19.607Z,77.60
2019-02-14T21:44:37.834Z,77.60
2019-02-14T21:47:08.090Z,77.70
2019-02-14T21:49:38.749Z,77.70
2019-02-14T21:52:09.250Z,77.70
2019-02-14T21:54:39.636Z,77.90
2019-02-14T21:57:09.945Z,78.10
2019-02-14T21:59:40.296Z,78.70
2019-02-14T22:02:10.609Z,78.80
2019-02-14T22:04:42.644Z,80.00
2019-02-14T22:07:12.971Z,79.30
2019-02-14T22:09:43.297Z,79.30
2019-02-14T22:12:13.616Z,79.40
2019-02-14T22:14:43.908Z,79.50
2019-02-14T22:17:14.230Z,79.30
2019-02-14T22:19:44.514Z,79.70
2019-02-14T22:22:14.816Z,79.80
2019-02-14T22:24:45.370Z,80.10
2019-02-14T22:27:15.643Z,80.20
2019-02-14T22:29:45.914Z,80.60
2019-02-14T22:32:16.269Z,80.70
2019-02-14T22:34:47.216Z,81.10
2019-02-14T22:37:17.633Z,81.20
2019-02-14T22:39:47.910Z,81.20
2019-02-14T22:42:18.220Z,81.50
2019-02-14T22:44:48.629Z,81.70
2019-02-14T22:47:18.949Z,81.80
2019-02-14T22:49:49.228Z,81.80
2019-02-14T22:52:19.520Z,81.70
2019-02-14T22:54:49.884Z,82.00
2019-02-14T22:57:20.165Z,81.70
2019-02-14T22:59:50.470Z,81.80
2019-02-14T23:02:20.949Z,81.90
2019-02-14T23:04:51.296Z,82.00
2019-02-14T23:07:21.561Z,82.30
2019-02-14T23:09:51.957Z,82.50
2019-02-14T23:12:22.308Z,82.60
2019-02-14T23:14:52.600Z,82.50
2019-02-14T23:17:22.873Z,82.30
2019-02-14T23:19:53.143Z,82.30
2019-02-14T23:22:23.509Z,82.10
2019-02-14T23:24:53.795Z,81.70
2019-02-14T23:27:24.089Z,81.30
2019-02-14T23:29:54.437Z,80.90
2019-02-14T23:32:24.824Z,80.30
2019-02-14T23:34:55.135Z,80.00
2019-02-14T23:37:25.411Z,79.20
2019-02-14T23:39:55.786Z,78.70
2019-02-14T23:42:26.141Z,78.30
2019-02-14T23:44:56.530Z,78.10
2019-02-14T23:47:26.821Z,78.30
2019-02-14T23:49:57.180Z,77.50
2019-02-14T23:52:27.453Z,77.20
2019-02-14T23:54:57.745Z,77.20
2019-02-14T23:57:28.021Z,76.80
2019-02-14T23:59:58.392Z,76.70
